createdAt,value
2022-12-31T00:03:31.058Z,9.26
2022-12-31T00:08:55.370Z,9.25
2022-12-31T00:14:19.350Z,9.26
2022-12-31T00:19:43.446Z,9.31
2022-12-31T00:25:08.068Z,9.32
2022-12-31T00:30:32.071Z,9.32
2022-12-31T00:35:56.420Z,9.34
2022-12-31T00:41:20.391Z,9.34
2022-12-31T00:52:07.740Z,9.27
2022-12-31T00:57:32.461Z,9.25
2022-12-31T01:02:55.815Z,9.29
2022-12-31T01:08:19.990Z,9.35
2022-12-31T01:13:44.605Z,9.37
2022-12-31T01:19:09.946Z,9.37
2022-12-31T01:24:34.003Z,9.39
2022-12-31T01:29:58.562Z,9.43
2022-12-31T01:35:22.564Z,9.39
2022-12-31T01:40:46.453Z,9.37
2022-12-31T01:46:10.793Z,9.38
2022-12-31T01:51:35.391Z,9.37
2022-12-31T01:56:59.417Z,9.36
2022-12-31T02:02:23.722Z,9.38
2022-12-31T02:07:47.654Z,9.37
2022-12-31T02:13:10.950Z,9.34
2022-12-31T02:18:49.996Z,9.36
2022-12-31T02:24:16.358Z,9.36
2022-12-31T02:30:06.810Z,9.37
2022-12-31T02:35:49.803Z,9.32
2022-12-31T02:41:34.450Z,9.33
2022-12-31T02:47:01.737Z,9.40
2022-12-31T02:52:41.119Z,9.44
2022-12-31T02:58:14.553Z,9.46
2022-12-31T03:03:38.330Z,9.53
2022-12-31T03:09:16.256Z,9.62
2022-12-31T03:14:39.825Z,9.68
2022-12-31T03:20:20.913Z,9.75
2022-12-31T03:25:46.063Z,9.82
2022-12-31T03:31:10.113Z,9.87
2022-12-31T03:36:34.352Z,9.88
2022-12-31T03:41:59.547Z,9.84
2022-12-31T03:47:23.467Z,9.81
2022-12-31T03:52:47.364Z,9.82
2022-12-31T03:58:11.452Z,9.85
2022-12-31T04:03:35.693Z,9.88
2022-12-31T04:09:01.278Z,9.81
2022-12-31T04:14:25.166Z,9.71
2022-12-31T04:19:48.515Z,9.70
2022-12-31T04:25:13.155Z,9.72
2022-12-31T04:30:37.802Z,9.76
2022-12-31T04:36:05.174Z,9.80
2022-12-31T04:41:29.604Z,9.79
2022-12-31T04:46:53.653Z,9.83
2022-12-31T04:52:17.408Z,9.91
2022-12-31T04:57:42.516Z,9.94
2022-12-31T05:03:06.347Z,9.99
2022-12-31T05:08:30.276Z,10.04
2022-12-31T05:13:54.114Z,10.05
2022-12-31T05:19:17.794Z,10.02
2022-12-31T05:24:41.122Z,10.04
2022-12-31T05:30:04.626Z,10.11
2022-12-31T05:35:29.384Z,10.17
2022-12-31T05:41:06.515Z,10.18
2022-12-31T05:46:30.397Z,10.17
2022-12-31T05:51:54.624Z,10.22
2022-12-31T05:57:18.346Z,10.26
2022-12-31T06:02:41.933Z,10.31
2022-12-31T06:08:06.296Z,10.33
2022-12-31T06:13:30.567Z,10.30
2022-12-31T06:18:54.819Z,10.23
2022-12-31T06:24:19.401Z,10.24
2022-12-31T06:29:43.131Z,10.32
2022-12-31T06:35:07.093Z,10.41
2022-12-31T06:40:31.095Z,10.46
2022-12-31T06:45:54.770Z,10.47
2022-12-31T06:51:19.730Z,10.51
2022-12-31T06:56:45.117Z,10.54
2022-12-31T07:02:24.114Z,10.67
2022-12-31T07:07:59.791Z,10.81
2022-12-31T07:13:27.122Z,10.84
2022-12-31T07:18:56.740Z,10.80
2022-12-31T07:24:21.238Z,10.77
2022-12-31T07:29:46.127Z,10.75
2022-12-31T07:35:22.040Z,10.80
2022-12-31T07:41:09.455Z,10.95
2022-12-31T07:46:53.263Z,11.18
2022-12-31T07:52:17.509Z,11.37
2022-12-31T07:57:48.907Z,11.51
2022-12-31T08:03:16.913Z,11.64
2022-12-31T08:08:47.751Z,11.78
2022-12-31T08:14:12.334Z,11.93
2022-12-31T08:19:36.651Z,12.11
2022-12-31T08:25:06.608Z,12.29
2022-12-31T08:30:40.905Z,12.38
2022-12-31T08:36:10.428Z,12.48
2022-12-31T08:41:43.187Z,12.61
2022-12-31T08:47:34.151Z,12.76
2022-12-31T08:53:01.466Z,12.86
2022-12-31T08:58:36.251Z,13.01
2022-12-31T09:04:15.843Z,13.14
2022-12-31T09:09:40.299Z,13.22
2022-12-31T09:15:08.316Z,13.36
2022-12-31T09:20:43.052Z,13.48
2022-12-31T09:26:43.909Z,13.54
2022-12-31T09:32:14.069Z,13.67
2022-12-31T09:37:48.034Z,13.82
2022-12-31T09:43:17.268Z,13.95
2022-12-31T09:48:44.408Z,14.12
2022-12-31T09:54:20.859Z,14.27
2022-12-31T10:00:04.451Z,14.39
2022-12-31T10:05:45.722Z,14.51
2022-12-31T10:11:29.015Z,14.61
2022-12-31T10:17:02.402Z,14.66
2022-12-31T10:22:32.531Z,14.72
2022-12-31T10:28:02.032Z,14.75
2022-12-31T10:33:42.487Z,14.77
2022-12-31T10:39:14.511Z,14.84
2022-12-31T10:44:47.543Z,14.87
2022-12-31T10:50:15.480Z,14.91
2022-12-31T11:02:14.825Z,15.11
2022-12-31T11:07:59.679Z,15.22
2022-12-31T11:13:42.084Z,15.38
2022-12-31T11:19:32.214Z,15.51
2022-12-31T11:25:18.902Z,15.59
2022-12-31T11:30:52.065Z,15.67
2022-12-31T11:36:19.725Z,15.78
2022-12-31T11:41:47.513Z,15.91
2022-12-31T11:47:25.094Z,15.99
2022-12-31T11:53:08.461Z,16.07
2022-12-31T11:58:33.271Z,16.21
2022-12-31T12:03:56.866Z,16.38
2022-12-31T12:09:30.330Z,16.50
2022-12-31T12:14:55.314Z,16.53
2022-12-31T12:20:20.415Z,16.53
2022-12-31T12:25:44.827Z,16.48
2022-12-31T12:31:08.730Z,16.33
2022-12-31T12:36:32.318Z,16.21
2022-12-31T12:42:04.282Z,16.12
2022-12-31T12:47:28.357Z,16.00
2022-12-31T12:53:11.192Z,15.91
2022-12-31T12:58:58.607Z,15.89
2022-12-31T13:04:37.921Z,15.88
2022-12-31T13:10:20.778Z,15.84
2022-12-31T13:15:51.064Z,15.84
2022-12-31T13:21:22.187Z,15.84
2022-12-31T13:27:01.314Z,15.75
2022-12-31T13:32:27.006Z,15.65
2022-12-31T13:37:51.565Z,15.58
2022-12-31T13:43:20.650Z,15.55
2022-12-31T13:48:46.535Z,15.48
2022-12-31T13:54:23.338Z,15.41
2022-12-31T13:59:47.941Z,15.39
2022-12-31T14:05:20.871Z,15.39
2022-12-31T14:10:45.057Z,15.41
2022-12-31T14:16:23.998Z,15.45
2022-12-31T14:22:11.132Z,15.49
2022-12-31T14:27:38.823Z,15.50
2022-12-31T14:33:18.469Z,15.51
2022-12-31T14:38:55.376Z,15.51
2022-12-31T14:44:22.861Z,15.44
2022-12-31T14:50:02.368Z,15.39
2022-12-31T14:55:31.099Z,15.37
2022-12-31T15:00:57.921Z,15.31
2022-12-31T15:06:25.385Z,15.27
2022-12-31T15:11:58.617Z,15.24
2022-12-31T15:17:33.444Z,15.24
2022-12-31T15:22:57.187Z,15.25
2022-12-31T15:28:32.896Z,15.30
2022-12-31T15:33:58.168Z,15.31
2022-12-31T15:39:33.884Z,15.28
2022-12-31T15:45:03.340Z,15.26
2022-12-31T15:50:27.399Z,15.28
2022-12-31T15:55:51.746Z,15.28
2022-12-31T16:01:24.632Z,15.26
2022-12-31T16:06:51.335Z,15.29
2022-12-31T16:12:18.693Z,15.25
2022-12-31T16:17:42.671Z,15.20
2022-12-31T16:23:13.683Z,15.22
2022-12-31T16:28:37.575Z,15.20
2022-12-31T16:34:04.848Z,15.19
2022-12-31T16:39:33.462Z,15.19
2022-12-31T16:44:59.948Z,15.19
2022-12-31T16:50:25.743Z,15.14
2022-12-31T16:56:01.757Z,15.07
2022-12-31T17:01:27.209Z,15.03
2022-12-31T17:06:51.722Z,15.04
2022-12-31T17:12:17.922Z,15.06
2022-12-31T17:17:41.931Z,15.00
2022-12-31T17:23:07.145Z,14.99
2022-12-31T17:28:33.631Z,15.00
2022-12-31T17:34:07.737Z,14.96
2022-12-31T17:40:49.726Z,14.98
2022-12-31T17:45:47.597Z,14.98
2022-12-31T17:51:13.147Z,14.94
2022-12-31T17:56:37.201Z,14.91
2022-12-31T18:02:02.309Z,14.92
2022-12-31T18:07:27.998Z,14.97
2022-12-31T18:12:53.487Z,14.95
2022-12-31T18:18:25.254Z,14.97
2022-12-31T18:23:51.767Z,14.98
2022-12-31T18:29:17.816Z,14.95
2022-12-31T18:34:43.229Z,15.00
2022-12-31T18:40:08.014Z,15.05
2022-12-31T18:45:32.177Z,15.08
2022-12-31T18:50:57.405Z,15.12
2022-12-31T18:56:23.750Z,15.13
2022-12-31T19:01:48.849Z,15.15
2022-12-31T19:07:13.846Z,15.19
2022-12-31T19:12:38.040Z,15.24
2022-12-31T19:18:02.235Z,15.29
2022-12-31T19:23:27.255Z,15.28
2022-12-31T19:28:52.276Z,15.23
2022-12-31T19:34:16.410Z,15.26
2022-12-31T19:39:40.795Z,15.28
2022-12-31T19:45:07.655Z,15.25
2022-12-31T19:50:32.002Z,15.26
2022-12-31T19:55:57.323Z,15.27
2022-12-31T20:01:23.165Z,15.28
2022-12-31T20:06:47.825Z,15.26
2022-12-31T20:12:12.864Z,15.22
2022-12-31T20:17:37.986Z,15.22
2022-12-31T20:23:02.327Z,15.24
2022-12-31T20:28:27.592Z,15.24
2022-12-31T20:33:52.033Z,15.20
2022-12-31T20:39:16.507Z,15.18
2022-12-31T20:44:41.578Z,15.13
2022-12-31T20:50:11.860Z,15.12
2022-12-31T20:55:38.814Z,15.13
2022-12-31T21:01:03.621Z,15.18
2022-12-31T21:06:28.752Z,15.19
2022-12-31T21:12:10.479Z,15.22
2022-12-31T21:17:35.076Z,15.25
2022-12-31T21:22:58.997Z,15.20
2022-12-31T21:28:23.097Z,15.23
2022-12-31T21:33:49.037Z,15.25
2022-12-31T21:39:13.757Z,15.34
2022-12-31T21:44:38.120Z,15.44
2022-12-31T21:50:03.568Z,15.49
2022-12-31T21:55:44.890Z,15.54
2022-12-31T22:01:26.727Z,15.48
2022-12-31T22:06:52.135Z,15.49
2022-12-31T22:12:16.641Z,15.50
2022-12-31T22:17:41.150Z,15.48
2022-12-31T22:23:05.791Z,15.53
2022-12-31T22:28:39.055Z,15.54
2022-12-31T22:34:03.662Z,15.56
2022-12-31T22:39:44.067Z,15.56
2022-12-31T22:45:09.653Z,15.55
2022-12-31T22:50:35.212Z,15.55
2022-12-31T22:56:00.362Z,15.58
2022-12-31T23:01:25.368Z,15.55
2022-12-31T23:06:49.693Z,15.56
2022-12-31T23:12:14.690Z,15.60
2022-12-31T23:17:55.902Z,15.55
2022-12-31T23:23:20.742Z,15.58
2022-12-31T23:28:45.762Z,15.66
2022-12-31T23:34:11.050Z,15.71
2022-12-31T23:39:35.501Z,15.79
2022-12-31T23:45:00.477Z,15.85
2022-12-31T23:50:52.468Z,15.91
2022-12-31T23:56:23.366Z,15.92
